Aérodrome :
LOGIN :

S'inscrire | Disclaimer

   EN    FR    IT 

 










Légende :    VFR   VFR Marginal   IFR   IFR Intensif   IFR Très Intensif
Visi : 
Plafond : 
>= 8 km
>= 3000ft
5 à 8 km
1000 à 3000 ft
1500m à 5 km
500 à 1000 ft
800 à 1500m
200 à 500 ft
< 800m
< 200 ft
Symboles :   Orages  Brouillard  Fortes neiges  Fortes précipitations  Vent > 20 kt
SIGMETs :   Divers  Orages  Givrage  Turbulence  Onde Orograph.  Cendres Volcan.






- Altitude de l'aérodrome : 296 ft
- Code IATA : GKE


ETNG - Geilenkirchen

DERNIER METAR :
  • 301950Z 29008KT 9999 -RA SCT016 SCT018 14/13 Q1014

METARs EXPIRÉS :
  • 301850Z 26007KT 9999 VCTS SCT009 FEW015CB BKN017 14/13 Q1014 RETS BECMG NSW
  • 301834Z 28008KT 9999 VCTS SCT009 FEW015CB BKN035 14/14 Q1014 RETS BECMG NSW
  • 301750Z 25009KT 8000 -TSRA FEW008 SCT015CB BKN030 15/13 Q1013 TEMPO 28015G35KT 2500 TSRA
  • 301735Z 28015KT 9999 -TSRA FEW008 SCT015CB BKN030 15/13 Q1013 TEMPO 28015G35KT 2500 TSRA

TAF TAF ETNG
Valide du 30 à 18h jusqu'au 01 à 09h UTC


301700Z 3018/0109 26008KT 9999 SCT010 BKN018
PROB30
TEMPO 3018/3019 28015G35KT 2500 SHRA TSRA BKN010 BKN030CB
TEMPO 3019/3024 4000 RA SHRA BKN008



MET'MAP, la Météo Aéronautique d'un coup d'oeil ! - Copyright ORBIFLY Décembre 2007 - Disclaimer

ORBIFLY MET'MAP TEAM :

Programmation & Développement : Alexandra Zaïnal
Sur une idée originale de : Baudouin d'Aumeries
Soutien technique & logistique : Manuel Goepfert
Assistance : Marc-Olivier Méhu




SOURCES & CREDITS :

   NOAA